sensor_id;sensor_type;location;lat;lon;timestamp;temperature;humidity
27819;DHT22;15192;44.854;10.046;2023-08-06T00:00:08;18.50;99.90
27819;DHT22;15192;44.854;10.046;2023-08-06T00:02:36;18.50;99.90
27819;DHT22;15192;44.854;10.046;2023-08-06T00:05:04;18.50;99.90
27819;DHT22;15192;44.854;10.046;2023-08-06T00:07:32;18.40;99.90
27819;DHT22;15192;44.854;10.046;2023-08-06T00:10:00;18.40;99.90
27819;DHT22;15192;44.854;10.046;2023-08-06T00:12:28;18.30;99.90
27819;DHT22;15192;44.854;10.046;2023-08-06T00:14:56;18.30;99.90
27819;DHT22;15192;44.854;10.046;2023-08-06T00:17:24;18.30;99.90
27819;DHT22;15192;44.854;10.046;2023-08-06T00:19:52;18.20;99.90
27819;DHT22;15192;44.854;10.046;2023-08-06T00:22:20;18.20;99.90
27819;DHT22;15192;44.854;10.046;2023-08-06T00:24:48;18.10;99.90
27819;DHT22;15192;44.854;10.046;2023-08-06T00:27:16;18.10;99.90
27819;DHT22;15192;44.854;10.046;2023-08-06T00:29:44;18.00;99.90
27819;DHT22;15192;44.854;10.046;2023-08-06T00:32:12;17.90;99.90
27819;DHT22;15192;44.854;10.046;2023-08-06T00:34:40;17.80;99.90
27819;DHT22;15192;44.854;10.046;2023-08-06T00:37:08;17.80;99.90
27819;DHT22;15192;44.854;10.046;2023-08-06T00:39:36;17.80;99.90
27819;DHT22;15192;44.854;10.046;2023-08-06T00:42:05;17.90;99.90
27819;DHT22;15192;44.854;10.046;2023-08-06T00:44:33;17.90;99.90
27819;DHT22;15192;44.854;10.046;2023-08-06T00:47:01;17.80;99.90
27819;DHT22;15192;44.854;10.046;2023-08-06T00:49:29;17.80;99.90
27819;DHT22;15192;44.854;10.046;2023-08-06T00:51:58;17.80;99.90
27819;DHT22;15192;44.854;10.046;2023-08-06T00:54:26;17.90;99.90
27819;DHT22;15192;44.854;10.046;2023-08-06T00:56:55;17.90;99.90
27819;DHT22;15192;44.854;10.046;2023-08-06T00:59:24;17.90;99.90
27819;DHT22;15192;44.854;10.046;2023-08-06T01:01:53;17.90;99.90
27819;DHT22;15192;44.854;10.046;2023-08-06T01:04:21;17.90;99.90
27819;DHT22;15192;44.854;10.046;2023-08-06T01:06:56;17.90;99.90
27819;DHT22;15192;44.854;10.046;2023-08-06T01:09:29;17.90;99.90
27819;DHT22;15192;44.854;10.046;2023-08-06T01:11:55;17.90;99.90
27819;DHT22;15192;44.854;10.046;2023-08-06T01:14:23;17.90;99.90
27819;DHT22;15192;44.854;10.046;2023-08-06T01:16:50;17.90;99.90
27819;DHT22;15192;44.854;10.046;2023-08-06T01:19:19;18.00;99.90
27819;DHT22;15192;44.854;10.046;2023-08-06T01:21:47;17.90;99.90
27819;DHT22;15192;44.854;10.046;2023-08-06T01:24:17;17.90;99.90
27819;DHT22;15192;44.854;10.046;2023-08-06T01:26:55;17.90;99.90
27819;DHT22;15192;44.854;10.046;2023-08-06T01:29:31;17.90;99.90
27819;DHT22;15192;44.854;10.046;2023-08-06T01:31:54;18.00;99.90
27819;DHT22;15192;44.854;10.046;2023-08-06T01:34:24;18.00;99.90
27819;DHT22;15192;44.854;10.046;2023-08-06T01:36:52;18.10;99.90
27819;DHT22;15192;44.854;10.046;2023-08-06T01:39:20;18.10;99.90
27819;DHT22;15192;44.854;10.046;2023-08-06T01:41:48;18.20;99.90
27819;DHT22;15192;44.854;10.046;2023-08-06T01:44:17;18.20;99.90
27819;DHT22;15192;44.854;10.046;2023-08-06T01:46:45;18.20;99.90
27819;DHT22;15192;44.854;10.046;2023-08-06T01:49:13;18.20;99.90
27819;DHT22;15192;44.854;10.046;2023-08-06T01:51:41;18.20;99.90
27819;DHT22;15192;44.854;10.046;2023-08-06T01:54:09;18.30;99.90
27819;DHT22;15192;44.854;10.046;2023-08-06T01:56:38;18.30;99.90
27819;DHT22;15192;44.854;10.046;2023-08-06T01:59:06;18.30;99.90
27819;DHT22;15192;44.854;10.046;2023-08-06T02:01:34;18.40;99.90
27819;DHT22;15192;44.854;10.046;2023-08-06T02:04:02;18.40;99.90
27819;DHT22;15192;44.854;10.046;2023-08-06T02:06:30;18.40;99.90
27819;DHT22;15192;44.854;10.046;2023-08-06T02:08:58;18.40;99.90
27819;DHT22;15192;44.854;10.046;2023-08-06T02:11:26;18.50;99.90
27819;DHT22;15192;44.854;10.046;2023-08-06T02:13:54;18.50;99.90
27819;DHT22;15192;44.854;10.046;2023-08-06T02:16:22;18.40;99.90
27819;DHT22;15192;44.854;10.046;2023-08-06T02:18:50;18.40;99.90
27819;DHT22;15192;44.854;10.046;2023-08-06T02:21:19;18.40;99.90
27819;DHT22;15192;44.854;10.046;2023-08-06T02:23:47;18.40;99.90
27819;DHT22;15192;44.854;10.046;2023-08-06T02:26:15;18.40;99.90
27819;DHT22;15192;44.854;10.046;2023-08-06T02:28:43;18.40;99.90
27819;DHT22;15192;44.854;10.046;2023-08-06T02:31:13;18.30;99.90
27819;DHT22;15192;44.854;10.046;2023-08-06T02:33:41;18.30;99.90
27819;DHT22;15192;44.854;10.046;2023-08-06T02:36:09;18.20;99.90
27819;DHT22;15192;44.854;10.046;2023-08-06T02:38:37;18.10;99.90
27819;DHT22;15192;44.854;10.046;2023-08-06T02:41:05;18.20;99.90
27819;DHT22;15192;44.854;10.046;2023-08-06T02:43:33;18.10;99.90
27819;DHT22;15192;44.854;10.046;2023-08-06T02:46:01;18.10;99.90
27819;DHT22;15192;44.854;10.046;2023-08-06T02:48:29;18.10;99.90
27819;DHT22;15192;44.854;10.046;2023-08-06T02:50:57;18.00;99.90
27819;DHT22;15192;44.854;10.046;2023-08-06T02:53:26;17.90;99.90
27819;DHT22;15192;44.854;10.046;2023-08-06T02:55:55;17.90;99.90
27819;DHT22;15192;44.854;10.046;2023-08-06T02:58:24;17.80;99.90
27819;DHT22;15192;44.854;10.046;2023-08-06T03:01:01;17.70;99.90
27819;DHT22;15192;44.854;10.046;2023-08-06T03:03:33;17.70;99.90
27819;DHT22;15192;44.854;10.046;2023-08-06T03:06:03;17.70;99.90
27819;DHT22;15192;44.854;10.046;2023-08-06T03:08:42;17.70;99.90
27819;DHT22;15192;44.854;10.046;2023-08-06T03:11:10;17.60;99.90
27819;DHT22;15192;44.854;10.046;2023-08-06T03:13:39;17.60;99.90
27819;DHT22;15192;44.854;10.046;2023-08-06T03:16:07;17.60;99.90
27819;DHT22;15192;44.854;10.046;2023-08-06T03:18:35;17.60;99.90
27819;DHT22;15192;44.854;10.046;2023-08-06T03:21:05;17.50;99.90
27819;DHT22;15192;44.854;10.046;2023-08-06T03:23:33;17.50;99.90
27819;DHT22;15192;44.854;10.046;2023-08-06T03:26:02;17.40;99.90
27819;DHT22;15192;44.854;10.046;2023-08-06T03:28:31;17.40;99.90
27819;DHT22;15192;44.854;10.046;2023-08-06T03:31:03;17.50;99.90
27819;DHT22;15192;44.854;10.046;2023-08-06T03:33:35;17.50;99.90
27819;DHT22;15192;44.854;10.046;2023-08-06T03:36:04;17.50;99.90
27819;DHT22;15192;44.854;10.046;2023-08-06T03:38:33;17.50;99.90
27819;DHT22;15192;44.854;10.046;2023-08-06T03:41:03;17.50;99.90
27819;DHT22;15192;44.854;10.046;2023-08-06T03:43:31;17.50;99.90
27819;DHT22;15192;44.854;10.046;2023-08-06T03:45:59;17.50;99.90
27819;DHT22;15192;44.854;10.046;2023-08-06T03:48:28;17.40;99.90
27819;DHT22;15192;44.854;10.046;2023-08-06T03:50:56;17.40;99.90
27819;DHT22;15192;44.854;10.046;2023-08-06T03:53:25;17.40;99.90
27819;DHT22;15192;44.854;10.046;2023-08-06T03:55:53;17.30;99.90
27819;DHT22;15192;44.854;10.046;2023-08-06T03:58:22;17.30;99.90
27819;DHT22;15192;44.854;10.046;2023-08-06T04:01:01;17.20;99.90
27819;DHT22;15192;44.854;10.046;2023-08-06T04:03:39;17.20;99.90
27819;DHT22;15192;44.854;10.046;2023-08-06T04:06:07;17.20;99.90
27819;DHT22;15192;44.854;10.046;2023-08-06T04:08:36;17.30;99.90
27819;DHT22;15192;44.854;10.046;2023-08-06T04:11:04;17.30;99.90
27819;DHT22;15192;44.854;10.046;2023-08-06T04:13:33;17.40;99.90
27819;DHT22;15192;44.854;10.046;2023-08-06T04:16:04;17.40;99.90
27819;DHT22;15192;44.854;10.046;2023-08-06T04:18:32;17.50;99.90
27819;DHT22;15192;44.854;10.046;2023-08-06T04:21:01;17.60;99.90
27819;DHT22;15192;44.854;10.046;2023-08-06T04:23:29;17.60;99.90
27819;DHT22;15192;44.854;10.046;2023-08-06T04:25:59;17.60;99.90
27819;DHT22;15192;44.854;10.046;2023-08-06T04:28:29;17.60;99.90
27819;DHT22;15192;44.854;10.046;2023-08-06T04:30:58;17.60;99.90
27819;DHT22;15192;44.854;10.046;2023-08-06T04:33:27;17.60;99.90
27819;DHT22;15192;44.854;10.046;2023-08-06T04:35:56;17.70;99.90
27819;DHT22;15192;44.854;10.046;2023-08-06T04:38:25;17.70;99.90
27819;DHT22;15192;44.854;10.046;2023-08-06T04:40:54;17.60;99.90
27819;DHT22;15192;44.854;10.046;2023-08-06T04:43:22;17.70;99.90
27819;DHT22;15192;44.854;10.046;2023-08-06T04:45:53;17.70;99.90
27819;DHT22;15192;44.854;10.046;2023-08-06T04:48:22;17.60;99.90
27819;DHT22;15192;44.854;10.046;2023-08-06T04:50:50;17.60;99.90
27819;DHT22;15192;44.854;10.046;2023-08-06T04:53:18;17.60;99.90
27819;DHT22;15192;44.854;10.046;2023-08-06T04:55:46;17.60;99.90
27819;DHT22;15192;44.854;10.046;2023-08-06T04:58:15;17.60;99.90
27819;DHT22;15192;44.854;10.046;2023-08-06T05:00:42;17.70;99.90
27819;DHT22;15192;44.854;10.046;2023-08-06T05:03:10;17.70;99.90
27819;DHT22;15192;44.854;10.046;2023-08-06T05:05:39;17.80;99.90
27819;DHT22;15192;44.854;10.046;2023-08-06T05:08:13;17.90;99.90
27819;DHT22;15192;44.854;10.046;2023-08-06T05:10:37;17.90;99.90
27819;DHT22;15192;44.854;10.046;2023-08-06T05:13:05;17.90;99.90
27819;DHT22;15192;44.854;10.046;2023-08-06T05:15:33;17.90;99.90
27819;DHT22;15192;44.854;10.046;2023-08-06T05:18:01;18.00;99.90
27819;DHT22;15192;44.854;10.046;2023-08-06T05:20:29;18.30;99.90
27819;DHT22;15192;44.854;10.046;2023-08-06T05:22:57;18.90;99.90
27819;DHT22;15192;44.854;10.046;2023-08-06T05:25:25;20.00;99.90
27819;DHT22;15192;44.854;10.046;2023-08-06T05:27:53;21.30;99.90
27819;DHT22;15192;44.854;10.046;2023-08-06T05:30:21;22.80;99.90
27819;DHT22;15192;44.854;10.046;2023-08-06T05:32:49;23.90;99.90
27819;DHT22;15192;44.854;10.046;2023-08-06T05:35:18;24.90;99.90
27819;DHT22;15192;44.854;10.046;2023-08-06T05:37:46;25.70;99.90
27819;DHT22;15192;44.854;10.046;2023-08-06T05:40:14;26.50;99.90
27819;DHT22;15192;44.854;10.046;2023-08-06T05:42:42;27.20;99.90
27819;DHT22;15192;44.854;10.046;2023-08-06T05:45:10;27.60;99.90
27819;DHT22;15192;44.854;10.046;2023-08-06T05:47:38;28.00;99.90
27819;DHT22;15192;44.854;10.046;2023-08-06T05:50:06;28.40;99.90
27819;DHT22;15192;44.854;10.046;2023-08-06T05:52:35;28.70;99.90
27819;DHT22;15192;44.854;10.046;2023-08-06T05:55:03;28.70;99.90
27819;DHT22;15192;44.854;10.046;2023-08-06T05:57:31;28.70;99.90
27819;DHT22;15192;44.854;10.046;2023-08-06T06:00:00;28.70;99.90
27819;DHT22;15192;44.854;10.046;2023-08-06T06:02:28;28.60;99.90
27819;DHT22;15192;44.854;10.046;2023-08-06T06:04:56;28.30;99.90
27819;DHT22;15192;44.854;10.046;2023-08-06T06:07:24;28.20;99.90
27819;DHT22;15192;44.854;10.046;2023-08-06T06:09:51;27.90;99.90
27819;DHT22;15192;44.854;10.046;2023-08-06T06:12:19;27.80;99.90
27819;DHT22;15192;44.854;10.046;2023-08-06T06:14:49;27.70;99.90
27819;DHT22;15192;44.854;10.046;2023-08-06T06:17:17;27.40;99.90
27819;DHT22;15192;44.854;10.046;2023-08-06T06:19:45;27.40;99.90
27819;DHT22;15192;44.854;10.046;2023-08-06T06:22:13;27.40;99.90
27819;DHT22;15192;44.854;10.046;2023-08-06T06:24:41;27.30;99.90
27819;DHT22;15192;44.854;10.046;2023-08-06T06:27:09;26.60;99.90
27819;DHT22;15192;44.854;10.046;2023-08-06T06:29:38;26.00;99.90
27819;DHT22;15192;44.854;10.046;2023-08-06T06:32:06;26.00;99.90
27819;DHT22;15192;44.854;10.046;2023-08-06T06:34:34;25.60;99.90
27819;DHT22;15192;44.854;10.046;2023-08-06T06:37:02;25.30;99.90
27819;DHT22;15192;44.854;10.046;2023-08-06T06:39:30;25.10;99.90
27819;DHT22;15192;44.854;10.046;2023-08-06T06:41:59;24.90;99.90
27819;DHT22;15192;44.854;10.046;2023-08-06T06:44:28;25.00;99.90
27819;DHT22;15192;44.854;10.046;2023-08-06T06:46:56;25.30;99.90
27819;DHT22;15192;44.854;10.046;2023-08-06T06:49:24;25.20;99.90
27819;DHT22;15192;44.854;10.046;2023-08-06T06:51:52;25.10;99.90
27819;DHT22;15192;44.854;10.046;2023-08-06T06:54:20;25.00;99.90
27819;DHT22;15192;44.854;10.046;2023-08-06T06:56:48;25.20;99.90
27819;DHT22;15192;44.854;10.046;2023-08-06T06:59:16;25.20;99.90
27819;DHT22;15192;44.854;10.046;2023-08-06T07:01:44;25.10;99.90
27819;DHT22;15192;44.854;10.046;2023-08-06T07:04:12;25.20;99.90
27819;DHT22;15192;44.854;10.046;2023-08-06T07:06:40;25.40;99.90
27819;DHT22;15192;44.854;10.046;2023-08-06T07:09:08;25.20;99.90
27819;DHT22;15192;44.854;10.046;2023-08-06T07:11:37;25.00;99.90
27819;DHT22;15192;44.854;10.046;2023-08-06T07:14:05;25.10;99.90
27819;DHT22;15192;44.854;10.046;2023-08-06T07:16:36;25.30;99.90
27819;DHT22;15192;44.854;10.046;2023-08-06T07:19:04;25.40;99.90
27819;DHT22;15192;44.854;10.046;2023-08-06T07:21:32;25.40;99.90
27819;DHT22;15192;44.854;10.046;2023-08-06T07:24:00;25.20;99.90
27819;DHT22;15192;44.854;10.046;2023-08-06T07:26:28;25.30;99.90
27819;DHT22;15192;44.854;10.046;2023-08-06T07:28:56;25.60;99.90
27819;DHT22;15192;44.854;10.046;2023-08-06T07:31:24;25.60;99.90
27819;DHT22;15192;44.854;10.046;2023-08-06T07:33:52;25.70;99.90
27819;DHT22;15192;44.854;10.046;2023-08-06T07:36:20;25.90;99.90
27819;DHT22;15192;44.854;10.046;2023-08-06T07:38:48;26.00;99.90
27819;DHT22;15192;44.854;10.046;2023-08-06T07:41:18;25.90;99.90
27819;DHT22;15192;44.854;10.046;2023-08-06T07:43:46;26.00;99.90
27819;DHT22;15192;44.854;10.046;2023-08-06T07:46:14;26.10;99.90
27819;DHT22;15192;44.854;10.046;2023-08-06T07:48:42;26.30;99.90
27819;DHT22;15192;44.854;10.046;2023-08-06T07:51:10;26.40;99.90
27819;DHT22;15192;44.854;10.046;2023-08-06T07:53:38;26.70;99.90
27819;DHT22;15192;44.854;10.046;2023-08-06T07:56:06;26.80;99.90
27819;DHT22;15192;44.854;10.046;2023-08-06T07:58:34;27.10;99.90
27819;DHT22;15192;44.854;10.046;2023-08-06T08:01:02;27.10;99.90
27819;DHT22;15192;44.854;10.046;2023-08-06T08:03:30;27.20;99.90
27819;DHT22;15192;44.854;10.046;2023-08-06T08:06:01;27.40;99.90
27819;DHT22;15192;44.854;10.046;2023-08-06T08:08:29;27.70;99.90
27819;DHT22;15192;44.854;10.046;2023-08-06T08:10:57;27.90;99.90
27819;DHT22;15192;44.854;10.046;2023-08-06T08:13:26;28.00;99.90
27819;DHT22;15192;44.854;10.046;2023-08-06T08:15:58;29.30;99.90
27819;DHT22;15192;44.854;10.046;2023-08-06T08:18:26;28.30;99.90
27819;DHT22;15192;44.854;10.046;2023-08-06T08:20:54;28.50;99.90
27819;DHT22;15192;44.854;10.046;2023-08-06T08:23:22;28.70;99.90
27819;DHT22;15192;44.854;10.046;2023-08-06T08:25:50;28.80;99.90
27819;DHT22;15192;44.854;10.046;2023-08-06T08:28:19;29.00;99.90
27819;DHT22;15192;44.854;10.046;2023-08-06T08:30:47;29.10;99.90
27819;DHT22;15192;44.854;10.046;2023-08-06T08:33:15;29.20;99.90
27819;DHT22;15192;44.854;10.046;2023-08-06T08:35:42;29.30;99.90
27819;DHT22;15192;44.854;10.046;2023-08-06T08:38:11;29.20;97.30
27819;DHT22;15192;44.854;10.046;2023-08-06T08:40:45;29.30;96.40
27819;DHT22;15192;44.854;10.046;2023-08-06T08:43:08;29.40;95.40
27819;DHT22;15192;44.854;10.046;2023-08-06T08:45:36;29.40;95.10
27819;DHT22;15192;44.854;10.046;2023-08-06T08:48:06;29.30;94.60
27819;DHT22;15192;44.854;10.046;2023-08-06T08:50:34;29.00;93.80
27819;DHT22;15192;44.854;10.046;2023-08-06T08:53:02;29.10;94.70
27819;DHT22;15192;44.854;10.046;2023-08-06T08:55:30;29.20;93.10
27819;DHT22;15192;44.854;10.046;2023-08-06T08:57:59;29.10;91.90
27819;DHT22;15192;44.854;10.046;2023-08-06T09:00:27;29.10;90.60
27819;DHT22;15192;44.854;10.046;2023-08-06T09:02:56;28.90;93.10
27819;DHT22;15192;44.854;10.046;2023-08-06T09:05:26;28.90;91.40
27819;DHT22;15192;44.854;10.046;2023-08-06T09:07:55;29.00;92.10
27819;DHT22;15192;44.854;10.046;2023-08-06T09:10:24;29.00;92.90
27819;DHT22;15192;44.854;10.046;2023-08-06T09:12:52;29.00;91.80
27819;DHT22;15192;44.854;10.046;2023-08-06T09:15:23;29.00;90.80
27819;DHT22;15192;44.854;10.046;2023-08-06T09:17:51;29.00;91.70
27819;DHT22;15192;44.854;10.046;2023-08-06T09:20:19;28.80;92.40
27819;DHT22;15192;44.854;10.046;2023-08-06T09:22:48;28.70;90.30
27819;DHT22;15192;44.854;10.046;2023-08-06T09:25:22;28.60;91.40
27819;DHT22;15192;44.854;10.046;2023-08-06T09:27:55;28.60;91.60
27819;DHT22;15192;44.854;10.046;2023-08-06T09:30:29;28.50;92.40
27819;DHT22;15192;44.854;10.046;2023-08-06T09:32:58;28.50;91.80
27819;DHT22;15192;44.854;10.046;2023-08-06T09:35:29;28.50;91.70
27819;DHT22;15192;44.854;10.046;2023-08-06T09:38:09;28.50;91.50
27819;DHT22;15192;44.854;10.046;2023-08-06T09:40:34;28.50;91.40
27819;DHT22;15192;44.854;10.046;2023-08-06T09:43:02;28.40;90.00
27819;DHT22;15192;44.854;10.046;2023-08-06T09:45:31;28.30;89.90
27819;DHT22;15192;44.854;10.046;2023-08-06T09:48:00;28.30;91.10
27819;DHT22;15192;44.854;10.046;2023-08-06T09:50:29;28.30;90.00
27819;DHT22;15192;44.854;10.046;2023-08-06T09:53:01;28.30;90.40
27819;DHT22;15192;44.854;10.046;2023-08-06T09:55:29;28.20;88.50
27819;DHT22;15192;44.854;10.046;2023-08-06T09:57:58;28.10;89.40
27819;DHT22;15192;44.854;10.046;2023-08-06T10:00:26;28.10;88.70
27819;DHT22;15192;44.854;10.046;2023-08-06T10:02:55;28.00;89.60
27819;DHT22;15192;44.854;10.046;2023-08-06T10:05:25;28.00;86.90
27819;DHT22;15192;44.854;10.046;2023-08-06T10:07:54;27.90;87.20
27819;DHT22;15192;44.854;10.046;2023-08-06T10:10:23;28.00;87.80
27819;DHT22;15192;44.854;10.046;2023-08-06T10:12:52;28.00;88.70
27819;DHT22;15192;44.854;10.046;2023-08-06T10:15:27;28.10;88.40
27819;DHT22;15192;44.854;10.046;2023-08-06T10:17:51;28.20;90.00
27819;DHT22;15192;44.854;10.046;2023-08-06T10:20:20;28.10;88.40
27819;DHT22;15192;44.854;10.046;2023-08-06T10:23:02;28.00;89.30
27819;DHT22;15192;44.854;10.046;2023-08-06T10:25:31;28.00;87.50
27819;DHT22;15192;44.854;10.046;2023-08-06T10:28:07;28.00;89.70
27819;DHT22;15192;44.854;10.046;2023-08-06T10:30:31;28.10;89.00
27819;DHT22;15192;44.854;10.046;2023-08-06T10:32:59;28.10;86.90
27819;DHT22;15192;44.854;10.046;2023-08-06T10:35:28;28.10;89.40
27819;DHT22;15192;44.854;10.046;2023-08-06T10:37:59;28.10;89.20
27819;DHT22;15192;44.854;10.046;2023-08-06T10:40:28;28.10;88.80
27819;DHT22;15192;44.854;10.046;2023-08-06T10:43:02;28.30;88.30
27819;DHT22;15192;44.854;10.046;2023-08-06T10:45:30;28.30;87.60
27819;DHT22;15192;44.854;10.046;2023-08-06T10:47:59;28.30;88.30
27819;DHT22;15192;44.854;10.046;2023-08-06T10:50:27;28.30;84.00
27819;DHT22;15192;44.854;10.046;2023-08-06T10:52:55;28.20;84.00
27819;DHT22;15192;44.854;10.046;2023-08-06T10:55:24;28.20;84.40
27819;DHT22;15192;44.854;10.046;2023-08-06T10:57:52;28.10;86.60
27819;DHT22;15192;44.854;10.046;2023-08-06T11:00:21;28.20;87.40
27819;DHT22;15192;44.854;10.046;2023-08-06T11:02:51;28.30;86.80
27819;DHT22;15192;44.854;10.046;2023-08-06T11:05:19;28.30;87.00
27819;DHT22;15192;44.854;10.046;2023-08-06T11:07:47;28.30;88.00
27819;DHT22;15192;44.854;10.046;2023-08-06T11:10:16;28.30;84.20
27819;DHT22;15192;44.854;10.046;2023-08-06T11:12:44;28.20;86.60
27819;DHT22;15192;44.854;10.046;2023-08-06T11:15:12;28.20;83.70
27819;DHT22;15192;44.854;10.046;2023-08-06T11:17:40;28.10;85.50
27819;DHT22;15192;44.854;10.046;2023-08-06T11:20:09;28.10;83.80
27819;DHT22;15192;44.854;10.046;2023-08-06T11:22:37;28.10;85.90
27819;DHT22;15192;44.854;10.046;2023-08-06T11:25:05;28.10;83.70
27819;DHT22;15192;44.854;10.046;2023-08-06T11:27:34;28.10;85.70
27819;DHT22;15192;44.854;10.046;2023-08-06T11:30:02;28.10;84.30
27819;DHT22;15192;44.854;10.046;2023-08-06T11:32:30;28.10;85.90
27819;DHT22;15192;44.854;10.046;2023-08-06T11:35:08;28.10;85.70
27819;DHT22;15192;44.854;10.046;2023-08-06T11:37:30;28.10;87.80
27819;DHT22;15192;44.854;10.046;2023-08-06T11:39:58;28.20;86.90
27819;DHT22;15192;44.854;10.046;2023-08-06T11:42:30;28.10;86.90
27819;DHT22;15192;44.854;10.046;2023-08-06T11:44:57;28.10;85.80
27819;DHT22;15192;44.854;10.046;2023-08-06T11:47:25;28.20;88.00
27819;DHT22;15192;44.854;10.046;2023-08-06T11:49:53;28.30;87.80
27819;DHT22;15192;44.854;10.046;2023-08-06T11:52:24;28.30;88.30
27819;DHT22;15192;44.854;10.046;2023-08-06T11:55:08;28.30;85.60
27819;DHT22;15192;44.854;10.046;2023-08-06T11:57:44;28.30;89.00
27819;DHT22;15192;44.854;10.046;2023-08-06T12:00:11;28.40;87.80
27819;DHT22;15192;44.854;10.046;2023-08-06T12:02:39;28.40;86.90
27819;DHT22;15192;44.854;10.046;2023-08-06T12:05:20;28.40;87.60
27819;DHT22;15192;44.854;10.046;2023-08-06T12:07:44;28.30;88.00
27819;DHT22;15192;44.854;10.046;2023-08-06T12:10:13;28.40;88.10
27819;DHT22;15192;44.854;10.046;2023-08-06T12:12:41;28.40;86.70
27819;DHT22;15192;44.854;10.046;2023-08-06T12:15:09;28.40;87.50
27819;DHT22;15192;44.854;10.046;2023-08-06T12:17:37;28.50;88.10
27819;DHT22;15192;44.854;10.046;2023-08-06T12:20:06;28.50;89.60
27819;DHT22;15192;44.854;10.046;2023-08-06T12:22:34;28.50;86.60
27819;DHT22;15192;44.854;10.046;2023-08-06T12:25:03;28.50;85.70
27819;DHT22;15192;44.854;10.046;2023-08-06T12:27:32;28.50;87.30
27819;DHT22;15192;44.854;10.046;2023-08-06T12:30:00;28.50;85.30
27819;DHT22;15192;44.854;10.046;2023-08-06T12:32:29;28.60;87.80
27819;DHT22;15192;44.854;10.046;2023-08-06T12:34:56;28.60;87.10
27819;DHT22;15192;44.854;10.046;2023-08-06T12:37:25;28.60;86.00
27819;DHT22;15192;44.854;10.046;2023-08-06T12:39:53;28.70;87.60
27819;DHT22;15192;44.854;10.046;2023-08-06T12:42:21;28.60;84.30
27819;DHT22;15192;44.854;10.046;2023-08-06T12:44:49;28.80;86.30
27819;DHT22;15192;44.854;10.046;2023-08-06T12:47:17;28.80;85.40
27819;DHT22;15192;44.854;10.046;2023-08-06T12:49:45;28.80;84.00
27819;DHT22;15192;44.854;10.046;2023-08-06T12:52:13;28.90;85.90
27819;DHT22;15192;44.854;10.046;2023-08-06T12:54:42;28.90;84.30
27819;DHT22;15192;44.854;10.046;2023-08-06T12:57:10;28.90;83.90
27819;DHT22;15192;44.854;10.046;2023-08-06T12:59:38;29.00;82.40
27819;DHT22;15192;44.854;10.046;2023-08-06T13:02:06;28.90;79.70
27819;DHT22;15192;44.854;10.046;2023-08-06T13:04:34;28.90;81.60
27819;DHT22;15192;44.854;10.046;2023-08-06T13:07:02;29.00;78.70
27819;DHT22;15192;44.854;10.046;2023-08-06T13:09:30;29.00;79.80
27819;DHT22;15192;44.854;10.046;2023-08-06T13:11:59;29.00;80.40
27819;DHT22;15192;44.854;10.046;2023-08-06T13:14:27;29.00;80.60
27819;DHT22;15192;44.854;10.046;2023-08-06T13:16:56;29.00;78.70
27819;DHT22;15192;44.854;10.046;2023-08-06T13:19:24;29.00;78.80
27819;DHT22;15192;44.854;10.046;2023-08-06T13:21:59;29.00;77.50
27819;DHT22;15192;44.854;10.046;2023-08-06T13:24:32;29.10;76.80
27819;DHT22;15192;44.854;10.046;2023-08-06T13:27:00;29.20;79.30
27819;DHT22;15192;44.854;10.046;2023-08-06T13:29:28;29.20;78.60
27819;DHT22;15192;44.854;10.046;2023-08-06T13:31:56;29.10;78.20
27819;DHT22;15192;44.854;10.046;2023-08-06T13:34:24;29.10;77.80
27819;DHT22;15192;44.854;10.046;2023-08-06T13:36:52;29.10;76.40
27819;DHT22;15192;44.854;10.046;2023-08-06T13:39:20;29.10;77.90
27819;DHT22;15192;44.854;10.046;2023-08-06T13:41:48;29.10;79.40
27819;DHT22;15192;44.854;10.046;2023-08-06T13:44:16;29.20;77.50
27819;DHT22;15192;44.854;10.046;2023-08-06T13:46:44;29.20;77.30
27819;DHT22;15192;44.854;10.046;2023-08-06T13:49:12;29.20;76.80
27819;DHT22;15192;44.854;10.046;2023-08-06T13:51:40;29.20;74.90
27819;DHT22;15192;44.854;10.046;2023-08-06T13:54:08;29.10;75.10
27819;DHT22;15192;44.854;10.046;2023-08-06T13:56:36;29.10;73.70
27819;DHT22;15192;44.854;10.046;2023-08-06T13:59:04;29.20;75.10
27819;DHT22;15192;44.854;10.046;2023-08-06T14:01:33;29.20;69.80
27819;DHT22;15192;44.854;10.046;2023-08-06T14:04:01;29.20;71.00
27819;DHT22;15192;44.854;10.046;2023-08-06T14:06:29;29.20;73.00
27819;DHT22;15192;44.854;10.046;2023-08-06T14:08:58;29.20;70.70
27819;DHT22;15192;44.854;10.046;2023-08-06T14:11:26;29.20;68.30
27819;DHT22;15192;44.854;10.046;2023-08-06T14:13:54;29.20;69.40
27819;DHT22;15192;44.854;10.046;2023-08-06T14:16:22;29.20;70.10
27819;DHT22;15192;44.854;10.046;2023-08-06T14:18:50;29.30;68.90
27819;DHT22;15192;44.854;10.046;2023-08-06T14:21:18;29.20;69.10
27819;DHT22;15192;44.854;10.046;2023-08-06T14:23:46;29.20;73.00
27819;DHT22;15192;44.854;10.046;2023-08-06T14:26:14;29.30;69.80
27819;DHT22;15192;44.854;10.046;2023-08-06T14:28:42;29.20;69.70
27819;DHT22;15192;44.854;10.046;2023-08-06T14:31:10;29.40;69.90
27819;DHT22;15192;44.854;10.046;2023-08-06T14:33:38;29.30;68.30
27819;DHT22;15192;44.854;10.046;2023-08-06T14:36:06;29.30;67.80
27819;DHT22;15192;44.854;10.046;2023-08-06T14:38:34;29.20;68.10
27819;DHT22;15192;44.854;10.046;2023-08-06T14:41:02;29.20;70.30
27819;DHT22;15192;44.854;10.046;2023-08-06T14:43:30;29.20;71.00
27819;DHT22;15192;44.854;10.046;2023-08-06T14:45:58;29.20;71.60
27819;DHT22;15192;44.854;10.046;2023-08-06T14:48:26;29.30;72.30
27819;DHT22;15192;44.854;10.046;2023-08-06T14:50:54;31.20;70.80
27819;DHT22;15192;44.854;10.046;2023-08-06T14:53:22;29.30;67.00
27819;DHT22;15192;44.854;10.046;2023-08-06T14:55:50;29.30;69.30
27819;DHT22;15192;44.854;10.046;2023-08-06T14:58:19;29.30;68.70
27819;DHT22;15192;44.854;10.046;2023-08-06T15:00:47;29.30;69.00
27819;DHT22;15192;44.854;10.046;2023-08-06T15:03:15;29.30;69.30
27819;DHT22;15192;44.854;10.046;2023-08-06T15:05:43;29.30;69.90
27819;DHT22;15192;44.854;10.046;2023-08-06T15:08:12;29.30;69.80
27819;DHT22;15192;44.854;10.046;2023-08-06T15:10:39;29.40;70.50
27819;DHT22;15192;44.854;10.046;2023-08-06T15:13:07;29.30;70.80
27819;DHT22;15192;44.854;10.046;2023-08-06T15:15:36;29.30;72.00
27819;DHT22;15192;44.854;10.046;2023-08-06T15:18:05;29.20;73.00
27819;DHT22;15192;44.854;10.046;2023-08-06T15:20:33;29.30;71.00
27819;DHT22;15192;44.854;10.046;2023-08-06T15:23:01;29.30;71.40